Brookhaven, New York
Current Conditions -  °F | °C
As of 10:56 AM on Saturday 22 Nov 2014 (Local Time) from KHWV Reporting Station
Clear Clear  
Wind Chill: 30°   Ceiling: Unl
Heat Index: 37°   Visibility: 10mi
Dew Point: 17°   Wind: 10mph
Humidity: 44%   Direction: 210°SSW
Pressure: 30.42"   Gusts: NA
Location:  40.78°N, 72.91°W
Report Text: KHWV 221556Z AUTO 21009KT 10SM CLR 03/M08 A3042 RMK AO2 RAE49 SLP302 P0000 T00281083 TSNO
Loading
Personal Weather Stations






























Interactive Weather Map New forecast layout! Learn more

10-Day Weather Forecast

Advertisements
Track Severe Weather on mobile